Terminal Aerodrome Forecast
Issued by NWS Austin/San Antonio, TX

Home | Current Version | Previous Version | Text Only | Print | Product List | Glossary On
Versions: 1 2 3 4 5 6 7 8 9 10 11 12 13 14 15 16 17 18 19 20 21 22 23 24 25 26 27 28 29 30 31 32
043
FTUS44 KEWX 181235 AAA
TAFSAT
TAF AMD
KSAT 181235Z 1813/1918 08003KT 3SM -DZ BR SCT003 OVC007
     FM182100 12005KT 5SM BR OVC010
     FM190200 08003KT 1SM BR OVC005
     FM190700 06003KT 1SM SHRA BR OVC004
     FM191600 17007KT 5SM BR OVC010=

USA.gov is the U.S. government's official web portal to all federal, state and local government web resources and services.